Time;durP1;ratioP1;P1;durP2;ratioP2;P2;SDS_P1;SDS_P2;PMS_P1;PMS_P2;Temp;Humidity;BMP_temperature;BMP_pressure;BME280_temperature;BME280_humidity;BME280_pressure;Samples;Min_cycle;Max_cycle;Signal;HPM_P1;HPM_P2
2023/12/31 00:02:22;;;;;;;2.55;1.30;;;;;;;5.65;69.01;99908.75;1623966;86;21058;-70
2023/12/31 00:04:51;;;;;;;2.42;1.30;;;;;;;5.65;69.19;99906.88;1599185;88;21039;-71
2023/12/31 00:07:19;;;;;;;2.25;1.30;;;;;;;5.64;69.12;99905.70;1624152;88;21047;-70
2023/12/31 00:09:48;;;;;;;4.78;1.77;;;;;;;5.64;68.98;99911.13;1624071;88;20992;-71
2023/12/31 00:12:17;;;;;;;5.72;2.00;;;;;;;5.61;68.98;99906.05;1624097;88;21074;-72
2023/12/31 00:14:45;;;;;;;4.22;1.75;;;;;;;5.61;69.11;99915.56;1624102;88;21031;-70
2023/12/31 00:17:14;;;;;;;4.08;1.70;;;;;;;5.60;69.11;99912.00;1641455;86;21047;-71
2023/12/31 00:19:42;;;;;;;3.22;1.35;;;;;;;5.60;69.11;99922.87;1624119;88;21063;-70
2023/12/31 00:22:11;;;;;;;2.47;1.22;;;;;;;5.58;69.19;99928.14;1624095;88;21039;-70
2023/12/31 00:24:39;;;;;;;4.45;1.40;;;;;;;5.57;69.24;99935.97;1599029;88;21043;-71
2023/12/31 00:27:07;;;;;;;2.60;1.40;;;;;;;5.55;69.27;99940.73;1623994;88;21035;-70
2023/12/31 00:29:36;;;;;;;3.85;1.77;;;;;;;5.52;69.31;99937.85;1624045;88;21039;-72
2023/12/31 00:32:06;;;;;;;3.17;1.42;;;;;;;5.50;69.60;99937.19;1624092;88;21549;-70
2023/12/31 00:34:34;;;;;;;3.95;1.70;;;;;;;5.48;69.70;99938.38;1624090;88;21090;-71
2023/12/31 00:37:04;;;;;;;2.30;1.30;;;;;;;5.43;69.74;99928.55;1624091;88;21028;-70
2023/12/31 00:39:32;;;;;;;2.95;1.40;;;;;;;5.38;70.00;99927.73;1624177;88;21059;-70
2023/12/31 00:42:01;;;;;;;2.85;1.50;;;;;;;5.34;70.08;99923.16;1624201;88;21074;-70
2023/12/31 00:44:29;;;;;;;2.33;1.40;;;;;;;5.32;70.29;99925.72;1598988;88;21062;-70
2023/12/31 00:46:58;;;;;;;2.50;1.20;;;;;;;5.32;70.38;99933.86;1624095;88;21042;-70
2023/12/31 00:49:27;;;;;;;2.98;1.25;;;;;;;5.32;70.44;99921.64;1624142;88;21094;-71
2023/12/31 00:51:56;;;;;;;2.15;1.42;;;;;;;5.33;70.52;99920.61;1624036;88;21059;-71
2023/12/31 00:54:24;;;;;;;3.35;1.45;;;;;;;5.36;70.56;99936.05;1624251;88;21035;-70
2023/12/31 00:56:52;;;;;;;2.98;1.60;;;;;;;5.37;70.60;99930.95;1641350;87;21459;-71
2023/12/31 00:59:21;;;;;;;2.55;1.52;;;;;;;5.35;70.52;99923.49;1624023;88;21061;-71
2023/12/31 01:01:50;;;;;;;2.92;1.35;;;;;;;5.34;70.53;99931.30;1646676;86;21034;-71
2023/12/31 01:04:21;;;;;;;3.12;1.60;;;;;;;5.31;70.56;99943.03;1632523;88;21003;-71
2023/12/31 01:06:50;;;;;;;2.67;1.30;;;;;;;5.29;70.69;99935.57;1641770;86;20998;-71
2023/12/31 01:09:19;;;;;;;3.50;1.80;;;;;;;5.28;70.83;99933.37;1641829;87;21047;-69
2023/12/31 01:11:48;;;;;;;3.08;1.60;;;;;;;5.28;70.91;99933.37;1632743;88;21038;-69
2023/12/31 01:14:17;;;;;;;4.40;1.80;;;;;;;5.26;71.11;99927.27;1642144;87;21026;-70
2023/12/31 01:16:46;;;;;;;3.92;1.50;;;;;;;5.25;71.21;99932.87;1642065;87;21030;-72
2023/12/31 01:19:16;;;;;;;3.37;1.60;;;;;;;5.24;71.30;99936.61;1641831;87;21089;-71
2023/12/31 01:21:45;;;;;;;4.53;1.62;;;;;;;5.21;71.47;99931.02;1641984;87;21006;-70
2023/12/31 01:24:13;;;;;;;2.02;1.37;;;;;;;5.21;71.66;99934.24;1632625;88;21528;-69
2023/12/31 01:26:43;;;;;;;3.95;1.70;;;;;;;5.19;71.74;99944.40;1632610;88;21003;-70
2023/12/31 01:29:11;;;;;;;3.37;1.65;;;;;;;5.19;71.85;99934.89;1632539;88;21047;-70
2023/12/31 01:31:40;;;;;;;2.37;1.50;;;;;;;5.19;71.92;99928.95;1632520;88;20999;-70
2023/12/31 01:34:08;;;;;;;5.05;2.00;;;;;;;5.23;72.08;99932.20;1641855;86;21047;-70
2023/12/31 01:36:37;;;;;;;4.72;2.27;;;;;;;5.23;72.24;99955.28;1641852;87;21038;-69
2023/12/31 01:39:11;;;;;;;3.12;1.80;;;;;;;5.25;72.13;99951.88;1642160;87;21074;-71
2023/12/31 01:41:38;;;;;;;4.28;2.22;;;;;;;5.25;72.19;99947.80;1641926;86;21086;-71
2023/12/31 01:44:07;;;;;;;4.05;1.57;;;;;;;5.23;72.23;99943.91;1632501;88;21500;-70
2023/12/31 01:46:35;;;;;;;2.67;1.65;;;;;;;5.25;72.29;99943.22;1642028;87;20987;-70
2023/12/31 01:49:04;;;;;;;2.50;1.80;;;;;;;5.26;72.34;99941.35;1632822;88;21031;-71
2023/12/31 01:51:34;;;;;;;6.10;1.75;;;;;;;5.27;72.40;99938.46;1642120;87;21427;-70
2023/12/31 01:54:03;;;;;;;3.45;1.92;;;;;;;5.29;72.41;99946.44;1641889;87;21061;-71
2023/12/31 01:56:34;;;;;;;3.77;1.95;;;;;;;5.26;72.45;99944.91;1641860;87;21022;-71
2023/12/31 01:59:02;;;;;;;3.45;1.70;;;;;;;5.23;72.56;99945.27;1632756;87;21027;-71
2023/12/31 02:01:31;;;;;;;3.92;2.35;;;;;;;5.23;72.74;99944.42;1632665;88;21031;-70
2023/12/31 02:03:59;;;;;;;3.58;1.80;;;;;;;5.25;72.77;99950.02;1594713;88;21073;-71
2023/12/31 02:06:28;;;;;;;4.50;2.02;;;;;;;5.25;72.83;99954.09;1619692;88;21079;-70
2023/12/31 02:08:56;;;;;;;4.40;2.12;;;;;;;5.29;72.82;99950.51;1592715;90;21573;-69
2023/12/31 02:11:25;;;;;;;2.92;1.80;;;;;;;5.29;72.71;99949.16;1619597;87;21134;-71
2023/12/31 02:13:53;;;;;;;3.67;1.70;;;;;;;5.29;72.71;99947.80;1592807;90;21091;-71
2023/12/31 02:16:22;;;;;;;4.00;2.05;;;;;;;5.27;72.72;99951.20;1619613;88;21059;-69
2023/12/31 02:18:50;;;;;;;3.33;1.62;;;;;;;5.22;72.71;99952.23;1592748;90;21606;-70
2023/12/31 02:21:19;;;;;;;5.83;1.72;;;;;;;5.19;72.87;99952.03;1619838;88;21087;-69
2023/12/31 02:23:47;;;;;;;2.83;1.50;;;;;;;5.18;72.93;99946.27;1592780;89;21162;-69
2023/12/31 02:26:15;;;;;;;2.55;1.60;;;;;;;5.13;73.03;99955.45;1619649;88;21234;-70
2023/12/31 02:28:44;;;;;;;5.20;1.82;;;;;;;5.09;73.20;99948.67;1592981;90;21086;-70
2023/12/31 02:31:13;;;;;;;3.00;1.60;;;;;;;5.07;73.32;99950.20;1595152;88;21070;-72
2023/12/31 02:33:42;;;;;;;2.30;1.30;;;;;;;5.05;73.42;99953.59;1568727;90;21103;-69
2023/12/31 02:36:10;;;;;;;3.85;2.10;;;;;;;5.02;73.55;99961.24;1619660;87;21079;-71
2023/12/31 02:38:39;;;;;;;2.90;1.60;;;;;;;4.99;73.65;99957.52;1592762;89;21092;-70
2023/12/31 02:41:08;;;;;;;4.30;2.20;;;;;;;4.98;73.79;99961.25;1619780;87;21062;-69
2023/12/31 02:43:36;;;;;;;4.55;2.10;;;;;;;4.95;73.80;99966.52;1593005;90;21107;-70
2023/12/31 02:46:05;;;;;;;5.62;2.50;;;;;;;4.91;73.89;99965.67;1619677;87;21119;-70
2023/12/31 02:48:34;;;;;;;4.45;2.10;;;;;;;4.90;74.04;99968.05;1592918;90;21098;-70
2023/12/31 02:51:03;;;;;;;4.65;2.10;;;;;;;4.87;74.09;99969.75;1619517;88;21622;-69
2023/12/31 02:53:31;;;;;;;3.55;1.92;;;;;;;4.80;74.23;99971.45;1592763;90;21067;-70
2023/12/31 02:56:00;;;;;;;5.40;2.10;;;;;;;4.74;74.43;99959.42;1619710;87;21571;-70
2023/12/31 02:58:28;;;;;;;5.28;2.37;;;;;;;4.70;74.66;99971.13;1593024;90;21189;-71
2023/12/31 03:01:00;;;;;;;4.70;2.27;;;;;;;4.68;74.82;99964.17;1619559;87;21122;-71
2023/12/31 03:03:30;;;;;;;5.28;2.20;;;;;;;4.66;74.96;99975.70;1580317;89;21572;-70
2023/12/31 03:05:58;;;;;;;5.22;2.02;;;;;;;4.62;75.17;99975.20;1601711;89;21641;-71
2023/12/31 03:08:27;;;;;;;3.67;2.10;;;;;;;4.60;75.36;99971.81;1575495;91;21151;-69
2023/12/31 03:10:56;;;;;;;4.70;2.52;;;;;;;4.56;75.46;99970.45;1601513;89;21124;-71
2023/12/31 03:13:25;;;;;;;5.97;2.60;;;;;;;4.53;75.59;99983.48;1575388;91;21472;-70
2023/12/31 03:15:55;;;;;;;8.68;3.25;;;;;;;4.50;75.63;99986.02;1601729;89;21112;-71
2023/12/31 03:18:23;;;;;;;5.83;2.60;;;;;;;4.45;75.66;99980.25;1579551;91;21589;-70
2023/12/31 03:20:52;;;;;;;6.47;2.70;;;;;;;4.40;75.84;99985.34;1632868;88;21043;-70
2023/12/31 03:23:20;;;;;;;5.72;2.55;;;;;;;4.33;76.12;99983.80;1632777;88;21042;-71
2023/12/31 03:25:49;;;;;;;6.03;2.30;;;;;;;4.26;76.45;99995.48;1632787;88;21022;-70
2023/12/31 03:28:17;;;;;;;5.37;2.15;;;;;;;4.21;76.69;99987.01;1632751;88;21075;-69
2023/12/31 03:30:46;;;;;;;5.97;2.58;;;;;;;4.16;76.90;99995.64;1632778;88;21011;-70
2023/12/31 03:33:16;;;;;;;4.87;2.52;;;;;;;4.12;77.05;99995.13;1633036;88;21086;-70
2023/12/31 03:35:45;;;;;;;6.12;2.20;;;;;;;4.10;77.20;100006.64;1632788;88;21074;-71
2023/12/31 03:38:13;;;;;;;4.95;2.10;;;;;;;4.07;77.40;100008.84;1632754;88;21114;-72
2023/12/31 03:40:41;;;;;;;4.62;2.20;;;;;;;4.04;77.49;100014.08;1632831;88;21066;-70
2023/12/31 03:43:10;;;;;;;3.85;2.10;;;;;;;4.01;77.72;100018.48;1633079;87;21040;-71
2023/12/31 03:45:40;;;;;;;4.78;1.98;;;;;;;3.95;77.79;100023.20;1632848;87;21803;-71
2023/12/31 03:48:09;;;;;;;4.90;2.20;;;;;;;3.92;78.03;100027.59;1632719;88;21007;-70
2023/12/31 03:50:37;;;;;;;5.22;2.52;;;;;;;3.92;78.16;100037.59;1632724;88;21039;-70
2023/12/31 03:53:06;;;;;;;5.35;2.35;;;;;;;3.90;78.14;100038.23;1632657;88;21459;-70
2023/12/31 03:55:35;;;;;;;5.53;2.25;;;;;;;3.87;78.19;100043.47;1632745;87;21054;-71
2023/12/31 03:58:05;;;;;;;7.92;2.45;;;;;;;3.86;78.26;100028.73;1632825;87;21050;-69
2023/12/31 04:00:34;;;;;;;4.25;2.20;;;;;;;3.83;78.28;100042.95;1632925;88;21031;-71
2023/12/31 04:03:03;;;;;;;5.42;2.30;;;;;;;3.82;78.44;100048.02;1632771;87;21087;-71
2023/12/31 04:05:32;;;;;;;5.75;2.30;;;;;;;3.82;78.60;100049.89;1632941;88;21487;-71
2023/12/31 04:08:01;;;;;;;9.73;2.62;;;;;;;3.82;78.71;100045.82;1632925;86;21503;-69
2023/12/31 04:10:32;;;;;;;5.67;2.60;;;;;;;3.79;78.81;100042.94;1623519;88;21027;-71
2023/12/31 04:13:02;;;;;;;6.47;2.70;;;;;;;3.78;78.95;100047.16;1623520;87;21044;-71
2023/12/31 04:15:30;;;;;;;5.35;2.72;;;;;;;3.78;79.03;100052.58;1605654;88;21471;-70
2023/12/31 04:17:59;;;;;;;5.15;2.55;;;;;;;3.76;79.15;100050.53;1623528;88;21486;-71
2023/12/31 04:20:28;;;;;;;6.53;2.65;;;;;;;3.75;79.31;100052.40;1632895;88;21063;-69
2023/12/31 04:22:56;;;;;;;5.72;2.58;;;;;;;3.74;79.42;100054.77;1632877;86;21077;-69
2023/12/31 04:25:25;;;;;;;8.00;3.37;;;;;;;3.77;79.58;100058.50;1633210;88;21066;-71
2023/12/31 04:27:54;;;;;;;10.48;3.72;;;;;;;3.78;79.64;100051.23;1623638;88;21027;-71
2023/12/31 04:30:23;;;;;;;7.12;3.10;;;;;;;3.75;79.72;100050.19;1633096;86;21047;-70
2023/12/31 04:32:52;;;;;;;5.55;2.75;;;;;;;3.75;79.93;100053.75;1623709;88;21060;-69
2023/12/31 04:35:21;;;;;;;5.70;2.72;;;;;;;3.77;79.92;100059.01;1623605;88;21109;-71
2023/12/31 04:37:49;;;;;;;6.00;2.55;;;;;;;3.78;79.87;100058.00;1623620;88;21159;-71
2023/12/31 04:40:18;;;;;;;7.65;2.85;;;;;;;3.78;80.00;100051.23;1648360;87;21177;-69
2023/12/31 04:42:46;;;;;;;7.12;2.90;;;;;;;3.76;79.99;100051.89;1633112;88;21030;-70
2023/12/31 04:45:15;;;;;;;6.92;3.40;;;;;;;3.74;80.10;100058.83;1633018;88;21529;-72
2023/12/31 04:47:44;;;;;;;4.28;2.67;;;;;;;3.72;80.21;100062.20;1633059;88;21075;-71
2023/12/31 04:50:12;;;;;;;8.15;3.00;;;;;;;3.72;80.31;100061.36;1623780;88;20996;-71
2023/12/31 04:52:41;;;;;;;5.42;2.70;;;;;;;3.72;80.42;100068.13;1605647;88;21040;-70
2023/12/31 04:55:09;;;;;;;6.55;3.10;;;;;;;3.72;80.57;100070.84;1623749;88;21098;-70
2023/12/31 04:57:38;;;;;;;8.98;3.12;;;;;;;3.73;80.71;100077.95;1632993;88;21026;-71
2023/12/31 05:00:08;;;;;;;5.58;3.10;;;;;;;3.71;80.68;100079.47;1623559;87;21625;-71
2023/12/31 05:02:37;;;;;;;7.20;3.40;;;;;;;3.72;80.71;100082.52;1633132;86;21094;-71
2023/12/31 05:05:07;;;;;;;10.35;3.83;;;;;;;3.74;80.69;100079.66;1623586;88;21035;-70
2023/12/31 05:07:35;;;;;;;7.00;3.02;;;;;;;3.73;80.64;100077.45;1633172;88;21475;-70
2023/12/31 05:10:05;;;;;;;8.03;2.87;;;;;;;3.74;80.71;100080.50;1632986;88;21541;-71
2023/12/31 05:12:34;;;;;;;7.45;3.35;;;;;;;3.76;80.70;100083.05;1633166;86;21038;-70
2023/12/31 05:15:03;;;;;;;8.40;3.98;;;;;;;3.75;80.67;100086.77;1623665;88;20992;-70
2023/12/31 05:17:31;;;;;;;8.08;4.08;;;;;;;3.73;80.72;100092.36;1623686;88;21474;-70
2023/12/31 05:20:00;;;;;;;8.80;4.40;;;;;;;3.72;80.71;100083.03;1633035;88;21085;-70
2023/12/31 05:22:29;;;;;;;6.70;3.58;;;;;;;3.73;80.70;100088.29;1623695;88;21039;-71
2023/12/31 05:24:57;;;;;;;6.78;3.10;;;;;;;3.73;80.63;100098.28;1632962;86;21050;-71
2023/12/31 05:27:26;;;;;;;6.67;3.17;;;;;;;3.71;80.70;100095.73;1623567;88;21589;-70
2023/12/31 05:29:54;;;;;;;7.30;3.17;;;;;;;3.71;80.79;100101.66;1633381;88;21203;-69
2023/12/31 05:32:22;;;;;;;5.87;3.67;;;;;;;3.72;80.90;100101.49;1623695;88;21071;-70
2023/12/31 05:34:51;;;;;;;6.55;3.10;;;;;;;3.74;80.96;100095.91;1633191;88;21035;-72
2023/12/31 05:37:20;;;;;;;6.85;2.90;;;;;;;3.74;81.00;100099.47;1623831;88;21027;-71
2023/12/31 05:39:49;;;;;;;8.35;3.12;;;;;;;3.73;80.97;100104.55;1633006;87;21165;-71
2023/12/31 05:42:17;;;;;;;7.42;3.33;;;;;;;3.73;81.00;100096.42;1623633;88;21087;-71
2023/12/31 05:44:46;;;;;;;7.42;2.95;;;;;;;3.74;80.98;100107.60;1632967;88;21546;-70
2023/12/31 05:47:15;;;;;;;7.35;2.87;;;;;;;3.76;81.02;100106.93;1633217;88;21019;-71
2023/12/31 05:49:46;;;;;;;5.67;3.05;;;;;;;3.78;80.92;100108.13;1636419;86;21032;-71
2023/12/31 05:52:15;;;;;;;6.83;2.95;;;;;;;3.79;80.89;100100.34;1632979;86;21042;-70
2023/12/31 05:54:43;;;;;;;8.38;3.58;;;;;;;3.79;80.80;100100.34;1623668;88;21011;-71
2023/12/31 05:57:12;;;;;;;7.30;3.20;;;;;;;3.79;80.78;100093.06;1633058;88;20995;-71
2023/12/31 05:59:41;;;;;;;4.80;3.05;;;;;;;3.82;80.82;100085.11;1623752;87;21513;-70
2023/12/31 06:02:10;;;;;;;6.62;3.02;;;;;;;3.85;80.72;100094.27;1633011;88;21091;-69
2023/12/31 06:04:38;;;;;;;5.12;2.75;;;;;;;3.86;80.62;100095.97;1627006;87;21098;-71
2023/12/31 06:07:07;;;;;;;6.85;3.30;;;;;;;3.87;80.54;100099.53;1634014;88;21577;-71
2023/12/31 06:09:35;;;;;;;5.92;2.83;;;;;;;3.88;80.58;100100.72;1604893;89;21198;-70
2023/12/31 06:12:05;;;;;;;12.53;3.42;;;;;;;3.90;80.44;100104.16;1585966;88;21142;-70
2023/12/31 06:14:33;;;;;;;6.15;2.98;;;;;;;3.89;80.36;100112.41;1633855;88;21054;-70
2023/12/31 06:17:02;;;;;;;7.92;3.00;;;;;;;3.89;80.42;100103.78;1634139;88;21077;-71
2023/12/31 06:19:31;;;;;;;9.20;3.52;;;;;;;3.92;80.41;100105.34;1604810;89;21094;-71
2023/12/31 06:21:59;;;;;;;9.73;3.12;;;;;;;3.93;80.32;100102.98;1634045;88;21058;-70
2023/12/31 06:24:27;;;;;;;6.62;2.95;;;;;;;3.91;80.28;100106.36;1634152;88;21105;-71
2023/12/31 06:26:56;;;;;;;6.80;2.95;;;;;;;3.91;80.30;100109.92;1633929;88;21773;-71
2023/12/31 06:29:24;;;;;;;5.85;3.22;;;;;;;3.93;80.31;100116.03;1633975;88;21094;-71
2023/12/31 06:31:52;;;;;;;7.20;3.47;;;;;;;3.95;80.19;100109.94;1604973;89;21109;-71
2023/12/31 06:34:21;;;;;;;6.22;2.70;;;;;;;3.93;80.18;100110.61;1633992;88;21144;-71
2023/12/31 06:36:50;;;;;;;7.37;3.45;;;;;;;3.94;80.23;100100.11;1633955;88;21069;-70
2023/12/31 06:39:19;;;;;;;6.10;3.33;;;;;;;3.95;80.18;100118.58;1633935;88;21027;-70
2023/12/31 06:41:49;;;;;;;6.97;3.25;;;;;;;3.94;80.17;100109.59;1634120;88;21078;-70
2023/12/31 06:44:20;;;;;;;6.55;3.17;;;;;;;3.94;80.24;100110.10;1604755;89;21067;-70
2023/12/31 06:46:48;;;;;;;7.72;3.02;;;;;;;3.92;80.29;100117.55;1634034;88;21075;-70
2023/12/31 06:49:17;;;;;;;7.80;3.92;;;;;;;3.93;80.32;100117.89;1633876;88;21098;-70
2023/12/31 06:51:45;;;;;;;11.85;4.37;;;;;;;3.92;80.23;100125.17;1604901;88;21066;-71
2023/12/31 06:54:14;;;;;;;13.05;4.42;;;;;;;3.91;80.31;100130.25;1634040;88;21054;-72
2023/12/31 06:56:42;;;;;;;8.73;3.33;;;;;;;3.88;80.45;100125.11;1633821;88;21478;-71
2023/12/31 06:59:11;;;;;;;51.02;12.25;;;;;;;3.89;80.69;100121.39;1604755;89;21083;-70
2023/12/31 07:01:39;;;;;;;15.20;5.55;;;;;;;3.94;80.79;100122.30;1633898;88;21507;-70
2023/12/31 07:04:08;;;;;;;8.65;3.60;;;;;;;3.97;80.87;100130.11;1633554;86;21035;-71
2023/12/31 07:06:36;;;;;;;4.60;3.00;;;;;;;4.00;80.93;100129.27;1623583;88;21027;-70
2023/12/31 07:09:06;;;;;;;8.38;3.70;;;;;;;4.07;81.07;100132.19;1623504;87;21644;-70
2023/12/31 07:11:35;;;;;;;9.43;3.45;;;;;;;4.13;80.95;100136.95;1623761;87;21078;-70
2023/12/31 07:14:04;;;;;;;8.48;3.30;;;;;;;4.14;80.71;100136.80;1632907;88;21037;-72
2023/12/31 07:16:33;;;;;;;7.42;3.47;;;;;;;4.16;80.68;100140.70;1623475;88;21047;-70
2023/12/31 07:19:02;;;;;;;7.37;3.30;;;;;;;4.18;80.70;100142.73;1623475;88;21081;-70
2023/12/31 07:21:31;;;;;;;6.85;3.20;;;;;;;4.22;80.71;100145.47;1632981;88;21080;-70
2023/12/31 07:24:00;;;;;;;6.30;2.98;;;;;;;4.26;80.66;100144.63;1623585;88;21035;-70
2023/12/31 07:26:29;;;;;;;13.00;3.75;;;;;;;4.30;80.49;100158.20;1623606;88;21059;-71
2023/12/31 07:28:57;;;;;;;9.63;3.33;;;;;;;4.31;80.40;100155.33;1633055;86;21090;-70
2023/12/31 07:31:28;;;;;;;6.45;3.00;;;;;;;4.34;80.46;100150.94;1611299;88;21161;-71
2023/12/31 07:33:56;;;;;;;7.87;3.35;;;;;;;4.39;80.38;100151.30;1633062;86;21074;-70
2023/12/31 07:36:26;;;;;;;8.28;3.70;;;;;;;4.43;80.30;100150.46;1632896;88;21042;-71
2023/12/31 07:38:55;;;;;;;8.48;3.80;;;;;;;4.46;80.05;100155.05;1613269;88;21099;-70
2023/12/31 07:41:23;;;;;;;14.25;3.77;;;;;;;4.49;79.92;100144.88;1633011;86;21127;-69
2023/12/31 07:43:52;;;;;;;7.47;3.33;;;;;;;4.50;79.79;100156.08;1633166;88;21452;-71
2023/12/31 07:46:20;;;;;;;4.85;2.62;;;;;;;4.52;79.82;100153.54;1623470;88;21038;-69
2023/12/31 07:48:51;;;;;;;9.15;3.37;;;;;;;4.58;79.72;100162.92;1605392;88;21190;-71
2023/12/31 07:51:19;;;;;;;10.80;3.40;;;;;;;4.63;79.63;100168.19;1633108;86;21023;-70
2023/12/31 07:53:48;;;;;;;7.90;3.37;;;;;;;4.69;79.45;100159.38;1623711;87;21509;-72
2023/12/31 07:56:17;;;;;;;6.80;3.40;;;;;;;4.72;79.36;100166.34;1623806;88;21062;-70
2023/12/31 07:58:45;;;;;;;18.77;10.05;;;;;;;4.77;79.31;100174.84;1623655;88;21134;-71
2023/12/31 08:01:14;;;;;;;24.43;12.90;;;;;;;4.81;79.05;100167.22;1633353;88;21019;-71
2023/12/31 08:03:44;;;;;;;13.45;6.37;;;;;;;4.83;78.78;100173.33;1613102;86;21525;-69
2023/12/31 08:06:12;;;;;;;10.65;4.60;;;;;;;4.86;78.76;100169.77;1650233;86;21019;-70
2023/12/31 08:08:41;;;;;;;19.67;4.08;;;;;;;4.92;78.56;100170.46;1632775;88;21059;-70
2023/12/31 08:11:12;;;;;;;10.98;4.00;;;;;;;4.96;78.29;100173.69;1650404;86;21071;-71
2023/12/31 08:13:41;;;;;;;9.90;4.05;;;;;;;5.00;78.17;100184.56;1632746;88;21518;-70
2023/12/31 08:16:10;;;;;;;8.20;3.27;;;;;;;5.02;78.07;100184.73;1632752;88;21098;-70
2023/12/31 08:18:39;;;;;;;6.83;2.70;;;;;;;5.05;77.85;100194.41;1632879;88;21015;-71
2023/12/31 08:21:07;;;;;;;7.10;3.10;;;;;;;5.06;77.61;100192.03;1632745;88;21069;-72
2023/12/31 08:23:35;;;;;;;4.80;2.55;;;;;;;5.07;77.61;100191.87;1632836;88;21023;-70
2023/12/31 08:26:04;;;;;;;17.92;4.33;;;;;;;5.14;77.36;100187.13;1632777;88;21031;-70
2023/12/31 08:28:33;;;;;;;7.83;3.00;;;;;;;5.18;77.35;100202.06;1607705;88;21117;-70
2023/12/31 08:31:02;;;;;;;9.48;3.40;;;;;;;5.25;77.25;100193.61;1632844;87;21058;-71
2023/12/31 08:33:30;;;;;;;9.45;4.08;;;;;;;5.31;76.98;100197.86;1632852;87;21058;-71
2023/12/31 08:35:59;;;;;;;10.60;3.55;;;;;;;5.38;76.55;100194.81;1632884;88;21015;-71
2023/12/31 08:38:28;;;;;;;6.00;3.30;;;;;;;5.41;76.17;100201.27;1632867;87;21066;-71
2023/12/31 08:40:57;;;;;;;7.95;3.12;;;;;;;5.43;75.88;100202.96;1632778;88;21078;-71
2023/12/31 08:43:26;;;;;;;7.22;2.70;;;;;;;5.41;75.49;100195.83;1632847;88;21022;-71
2023/12/31 08:45:55;;;;;;;7.33;3.58;;;;;;;5.43;75.62;100195.66;1632896;88;21090;-71
2023/12/31 08:48:25;;;;;;;7.15;3.02;;;;;;;5.46;75.49;100198.03;1650693;86;21022;-71
2023/12/31 08:50:54;;;;;;;9.38;3.30;;;;;;;5.46;75.07;100199.91;1607979;88;21096;-70
2023/12/31 08:53:23;;;;;;;9.65;2.80;;;;;;;5.43;74.90;100188.02;1607758;88;21059;-70
2023/12/31 08:55:51;;;;;;;7.47;2.80;;;;;;;5.39;74.45;100178.00;1632942;88;21454;-71
2023/12/31 08:58:20;;;;;;;8.95;2.83;;;;;;;5.36;74.63;100181.91;1650466;86;21145;-71
2023/12/31 09:00:48;;;;;;;6.28;2.75;;;;;;;5.36;74.65;100190.05;1607723;88;21039;-73
2023/12/31 09:03:17;;;;;;;8.65;2.70;;;;;;;5.38;74.46;100183.94;1632900;87;21327;-71
2023/12/31 09:05:45;;;;;;;7.03;2.75;;;;;;;5.40;74.22;100183.77;1600728;88;21055;-73
2023/12/31 09:08:14;;;;;;;7.03;2.90;;;;;;;5.45;73.84;100187.34;1624258;87;21071;-70
2023/12/31 09:10:44;;;;;;;7.55;2.67;;;;;;;5.48;73.60;100184.28;1624349;87;21031;-71
2023/12/31 09:13:12;;;;;;;5.00;2.42;;;;;;;5.51;73.38;100186.14;1624206;87;21432;-71
2023/12/31 09:15:43;;;;;;;6.95;2.83;;;;;;;5.55;72.99;100187.50;1624345;88;21043;-68
2023/12/31 09:18:11;;;;;;;5.15;2.47;;;;;;;5.59;72.60;100192.09;1624302;88;20987;-71
2023/12/31 09:20:40;;;;;;;5.85;2.15;;;;;;;5.62;72.11;100191.23;1624255;87;21043;-72
2023/12/31 09:23:09;;;;;;;5.37;2.50;;;;;;;5.65;71.65;100184.61;1599209;88;21090;-70
2023/12/31 09:25:38;;;;;;;7.40;2.30;;;;;;;5.66;71.09;100191.74;1599453;88;21066;-71
2023/12/31 09:28:06;;;;;;;5.75;2.62;;;;;;;5.64;70.81;100181.55;1624496;87;21031;-70
2023/12/31 09:30:35;;;;;;;7.17;2.35;;;;;;;5.62;70.83;100193.11;1624467;88;21086;-72
2023/12/31 09:33:05;;;;;;;6.95;2.35;;;;;;;5.64;71.13;100191.06;1624217;87;21124;-71
2023/12/31 09:35:34;;;;;;;3.95;1.80;;;;;;;5.67;70.73;100201.59;1624547;88;21027;-70
2023/12/31 09:38:03;;;;;;;8.33;2.17;;;;;;;5.68;70.35;100204.65;1624697;87;21063;-70
2023/12/31 09:40:32;;;;;;;5.10;2.00;;;;;;;5.69;70.37;100206.34;1624521;87;21463;-71
2023/12/31 09:43:03;;;;;;;5.33;2.30;;;;;;;5.71;69.84;100206.52;1624296;88;21067;-72
2023/12/31 09:45:32;;;;;;;7.83;2.70;;;;;;;5.72;69.52;100200.57;1624219;88;21541;-71
2023/12/31 09:48:00;;;;;;;5.80;1.77;;;;;;;5.70;69.16;100196.66;1624199;87;21007;-71
2023/12/31 09:50:34;;;;;;;5.72;1.82;;;;;;;5.69;68.86;100188.68;1624278;88;21039;-70
2023/12/31 09:53:02;;;;;;;6.20;1.92;;;;;;;5.68;68.99;100201.94;1624124;88;21111;-69
2023/12/31 09:55:31;;;;;;;4.80;1.90;;;;;;;5.68;68.58;100192.42;1624219;87;21063;-70
2023/12/31 09:58:00;;;;;;;6.47;2.20;;;;;;;5.69;68.73;100186.81;1624398;87;21046;-71
2023/12/31 10:00:29;;;;;;;4.90;2.10;;;;;;;5.74;68.75;100195.81;1624284;88;21016;-71
2023/12/31 10:02:58;;;;;;;7.00;1.87;;;;;;;5.79;68.55;100181.19;1624336;88;21031;-70
2023/12/31 10:05:26;;;;;;;8.80;2.20;;;;;;;5.88;68.39;100197.86;1650316;85;21078;-70
2023/12/31 10:07:55;;;;;;;3.75;1.72;;;;;;;5.97;67.38;100196.01;1632675;87;21055;-70
2023/12/31 10:10:25;;;;;;;6.42;1.92;;;;;;;6.01;67.07;100190.56;1628513;87;21236;-70
2023/12/31 10:12:53;;;;;;;8.48;2.02;;;;;;;6.02;66.75;100176.79;1641878;87;21086;-70
2023/12/31 10:15:21;;;;;;;5.45;2.12;;;;;;;6.03;66.86;100182.56;1632587;88;21047;-70
2023/12/31 10:17:51;;;;;;;8.98;2.35;;;;;;;6.04;66.70;100184.77;1641755;87;21540;-70
2023/12/31 10:20:20;;;;;;;8.38;2.10;;;;;;;6.04;66.27;100185.63;1614828;87;21062;-69
2023/12/31 10:22:49;;;;;;;5.80;2.12;;;;;;;6.05;65.63;100185.11;1614437;86;21123;-72
2023/12/31 10:25:19;;;;;;;5.12;2.10;;;;;;;6.06;65.34;100185.96;1632515;88;21062;-70
2023/12/31 10:27:48;;;;;;;6.33;1.80;;;;;;;6.09;64.74;100185.10;1641835;86;21077;-69
2023/12/31 10:30:20;;;;;;;4.85;1.40;;;;;;;6.08;63.61;100181.20;1614961;87;21194;-71
2023/12/31 10:32:50;;;;;;;5.90;2.00;;;;;;;6.03;63.10;100179.84;1641738;87;21066;-72
2023/12/31 10:35:20;;;;;;;4.72;1.65;;;;;;;6.01;63.27;100183.25;1641768;86;21085;-70
2023/12/31 10:37:48;;;;;;;5.45;1.67;;;;;;;5.99;62.97;100174.92;1632693;87;21051;-71
2023/12/31 10:40:21;;;;;;;10.32;1.67;;;;;;;5.96;62.68;100176.13;1607196;88;21023;-71
2023/12/31 10:42:55;;;;;;;3.92;1.30;;;;;;;5.94;62.76;100191.77;1641799;87;21003;-70
2023/12/31 10:45:21;;;;;;;4.22;1.60;;;;;;;5.91;62.67;100187.18;1641870;86;21439;-72
2023/12/31 10:47:56;;;;;;;4.45;1.40;;;;;;;5.86;62.44;100182.74;1632581;87;21028;-71
2023/12/31 10:50:25;;;;;;;4.55;1.50;;;;;;;5.77;61.71;100181.88;1632491;88;21186;-72
2023/12/31 10:52:57;;;;;;;5.95;2.20;;;;;;;5.68;60.99;100187.83;1632482;88;21039;-71
2023/12/31 10:55:26;;;;;;;10.75;2.45;;;;;;;5.58;60.71;100180.88;1632537;87;21513;-71
2023/12/31 10:57:55;;;;;;;7.97;2.12;;;;;;;5.53;61.30;100177.83;1632536;88;21047;-72
2023/12/31 11:00:23;;;;;;;5.70;1.70;;;;;;;5.51;61.56;100183.43;1641978;87;21038;-71
2023/12/31 11:02:53;;;;;;;6.25;1.75;;;;;;;5.49;61.70;100183.26;1632523;88;21437;-72
2023/12/31 11:05:22;;;;;;;10.08;2.35;;;;;;;5.45;61.61;100169.67;1638837;86;21082;-71
2023/12/31 11:07:50;;;;;;;10.48;2.47;;;;;;;5.38;62.06;100181.22;1623565;88;21509;-70
2023/12/31 11:10:19;;;;;;;11.60;3.60;;;;;;;5.37;62.19;100174.09;1633062;88;21551;-71
2023/12/31 11:12:48;;;;;;;10.58;3.55;;;;;;;5.38;62.52;100173.08;1623541;88;21813;-70
2023/12/31 11:15:20;;;;;;;10.80;4.10;;;;;;;5.38;62.72;100179.86;1632998;86;21066;-69
2023/12/31 11:18:35;;;;;;;8.98;3.00;;;;;;;5.41;62.75;100175.45;1633150;88;21055;-71
2023/12/31 11:21:09;;;;;;;8.20;2.52;;;;;;;5.39;63.00;100174.77;1590206;88;21098;-71
2023/12/31 11:23:49;;;;;;;7.47;3.00;;;;;;;5.39;63.24;100177.48;1633413;88;21010;-70
2023/12/31 11:26:18;;;;;;;4.55;2.12;;;;;;;5.39;63.26;100182.08;1623522;88;21114;-71
2023/12/31 11:28:50;;;;;;;4.45;1.90;;;;;;;5.37;63.07;100191.75;1632930;88;21043;-72
2023/12/31 11:31:19;;;;;;;9.38;2.40;;;;;;;5.36;62.92;100187.84;1623511;88;21062;-72
2023/12/31 11:33:49;;;;;;;8.85;2.27;;;;;;;5.33;62.50;100180.03;1626532;87;21047;-72
2023/12/31 11:36:18;;;;;;;5.58;2.05;;;;;;;5.31;62.59;100185.64;1648358;87;21479;-71
2023/12/31 11:39:00;;;;;;;69.53;6.42;;;;;;;5.30;62.45;100188.02;1632960;88;21046;-72
2023/12/31 11:41:33;;;;;;;20.62;3.17;;;;;;;5.30;62.55;100189.37;1623719;88;21054;-72
2023/12/31 11:44:03;;;;;;;9.75;2.77;;;;;;;5.35;62.96;100188.86;1633401;86;21038;-72